INFORMACIÓN METAR y TAF
METAR FOR LESB
ADDS - METARS form results

(0054 UTC 05 July 2020)
Data provider http://aviationweather.gov/metar/data/
 
METAR text: LESB 050030Z AUTO 35004KT CAVOK 21/18 Q1022
Conditions at: LESB (MALLORCA SON BON, ES) observed 0030 UTC 05 July 2020
Temperature: 21.0°C (70°F)
Dewpoint: 18.0°C (64°F) [RH = 83%]
Pressure (altimeter): 30.18 inches Hg (1022.0 mb)
Winds: from the N (350 degrees) at 5 MPH (4 knots; 2.1 m/s)
Visibility: 6 or more miles (10+ km)
Ceiling: ceiling and visibility are OK
Clouds: unknown
Weather: no significant weather observed at this time

METAR text: LESB 050000Z AUTO VRB02KT CAVOK 21/18 Q1022
Conditions at: LESB (MALLORCA SON BON, ES) observed 0000 UTC 05 July 2020
Temperature: 21.0°C (70°F)
Dewpoint: 18.0°C (64°F) [RH = 83%]
Pressure (altimeter): 30.18 inches Hg (1022.0 mb)
Winds: variable direction winds at 2 MPH (2 knots; 1.0 m/s)
Visibility: 6 or more miles (10+ km)
Ceiling: ceiling and visibility are OK
Clouds: unknown
Weather: no significant weather observed at this time

 MAPA DE AEROPUERTO

 INFORMACIÓN DE PISTA
Pista 06 Longitud 3281 ft Ancho 72 ft
Elevación 0 ft Umbral desplazado 0 ft Rumbo de pista 49
Pista 24 Longitud 3281 ft Ancho 72 ft
Elevación 0 ft Umbral desplazado 0 ft Rumbo de pista 229

 FRECUANCIAS DEL AEROPUERTO
Tipo APP Nombre PALMA APP Frecuencia 119.4 MHZ
Tipo OPS Nombre PALMA OPS Frecuencia 130.25 MHZ
Tipo TWR Nombre PALMA TWR Frecuencia 118.3 MHZ

 RADIO AYUDAS DEL AEROPUERTO



Powered by Virtual Airlines Manager [v2.6.2]